sensor_id;sensor_type;location;lat;lon;timestamp;pressure;altitude;pressure_sealevel;temperature;humidity
74065;BME280;62421;51.412;5.432;2023-07-31T00:00:58;100969.34;;;15.27;100.00
74065;BME280;62421;51.412;5.432;2023-07-31T00:03:24;100971.16;;;15.27;100.00
74065;BME280;62421;51.412;5.432;2023-07-31T00:05:49;100968.47;;;15.27;100.00
74065;BME280;62421;51.412;5.432;2023-07-31T00:08:14;100961.34;;;15.26;100.00
74065;BME280;62421;51.412;5.432;2023-07-31T00:10:40;100957.81;;;15.25;100.00
74065;BME280;62421;51.412;5.432;2023-07-31T00:13:05;100959.78;;;15.23;100.00
74065;BME280;62421;51.412;5.432;2023-07-31T00:15:31;100965.03;;;15.25;100.00
74065;BME280;62421;51.412;5.432;2023-07-31T00:17:56;100963.47;;;15.22;100.00
74065;BME280;62421;51.412;5.432;2023-07-31T00:20:21;100965.19;;;15.23;100.00
74065;BME280;62421;51.412;5.432;2023-07-31T00:22:47;100961.59;;;15.23;100.00
74065;BME280;62421;51.412;5.432;2023-07-31T00:25:12;100962.63;;;15.22;100.00
74065;BME280;62421;51.412;5.432;2023-07-31T00:27:37;100960.03;;;15.20;100.00
74065;BME280;62421;51.412;5.432;2023-07-31T00:30:03;100947.50;;;15.19;100.00
74065;BME280;62421;51.412;5.432;2023-07-31T00:32:28;100954.78;;;15.19;100.00
74065;BME280;62421;51.412;5.432;2023-07-31T00:34:54;100954.91;;;15.17;100.00
74065;BME280;62421;51.412;5.432;2023-07-31T00:37:19;100959.59;;;15.15;100.00
74065;BME280;62421;51.412;5.432;2023-07-31T00:39:44;100957.75;;;15.15;100.00
74065;BME280;62421;51.412;5.432;2023-07-31T00:42:10;100951.47;;;15.15;100.00
74065;BME280;62421;51.412;5.432;2023-07-31T00:44:35;100953.19;;;15.16;100.00
74065;BME280;62421;51.412;5.432;2023-07-31T00:47:01;100955.31;;;15.12;100.00
74065;BME280;62421;51.412;5.432;2023-07-31T00:49:26;100939.81;;;15.14;100.00
74065;BME280;62421;51.412;5.432;2023-07-31T00:51:53;100937.47;;;15.10;100.00
74065;BME280;62421;51.412;5.432;2023-07-31T00:54:18;100944.63;;;15.11;100.00
74065;BME280;62421;51.412;5.432;2023-07-31T00:56:45;100939.34;;;15.09;100.00
74065;BME280;62421;51.412;5.432;2023-07-31T00:59:11;100953.03;;;15.08;100.00
74065;BME280;62421;51.412;5.432;2023-07-31T01:01:37;100946.88;;;15.06;100.00
74065;BME280;62421;51.412;5.432;2023-07-31T01:04:03;100940.16;;;15.00;100.00
74065;BME280;62421;51.412;5.432;2023-07-31T01:11:34;100940.44;;;14.97;100.00
74065;BME280;62421;51.412;5.432;2023-07-31T01:14:03;100933.69;;;14.91;100.00
74065;BME280;62421;51.412;5.432;2023-07-31T01:16:29;100937.38;;;14.90;100.00
74065;BME280;62421;51.412;5.432;2023-07-31T01:18:54;100945.66;;;14.89;100.00
74065;BME280;62421;51.412;5.432;2023-07-31T01:24:19;100943.47;;;14.83;100.00
74065;BME280;62421;51.412;5.432;2023-07-31T01:26:53;100934.63;;;14.81;100.00
74065;BME280;62421;51.412;5.432;2023-07-31T01:29:32;100929.47;;;14.78;100.00
74065;BME280;62421;51.412;5.432;2023-07-31T01:32:02;100938.88;;;14.73;100.00
74065;BME280;62421;51.412;5.432;2023-07-31T01:34:29;100937.97;;;14.73;100.00
74065;BME280;62421;51.412;5.432;2023-07-31T01:36:56;100934.56;;;14.71;100.00
74065;BME280;62421;51.412;5.432;2023-07-31T01:39:21;100933.81;;;14.69;100.00
74065;BME280;62421;51.412;5.432;2023-07-31T01:41:46;100936.81;;;14.66;100.00
74065;BME280;62421;51.412;5.432;2023-07-31T01:44:12;100940.50;;;14.65;100.00
74065;BME280;62421;51.412;5.432;2023-07-31T01:46:37;100930.69;;;14.64;100.00
74065;BME280;62421;51.412;5.432;2023-07-31T01:49:02;100931.69;;;14.63;100.00
74065;BME280;62421;51.412;5.432;2023-07-31T01:51:28;100925.28;;;14.64;100.00
74065;BME280;62421;51.412;5.432;2023-07-31T01:53:53;100927.13;;;14.63;100.00
74065;BME280;62421;51.412;5.432;2023-07-31T01:56:18;100929.81;;;14.63;100.00
74065;BME280;62421;51.412;5.432;2023-07-31T01:58:44;100927.25;;;14.62;100.00
74065;BME280;62421;51.412;5.432;2023-07-31T02:01:09;100922.69;;;14.62;100.00
74065;BME280;62421;51.412;5.432;2023-07-31T02:03:34;100917.28;;;14.62;100.00
74065;BME280;62421;51.412;5.432;2023-07-31T02:06:00;100913.13;;;14.58;100.00
74065;BME280;62421;51.412;5.432;2023-07-31T02:08:25;100906.75;;;14.59;100.00
74065;BME280;62421;51.412;5.432;2023-07-31T02:10:51;100900.34;;;14.60;100.00
74065;BME280;62421;51.412;5.432;2023-07-31T02:13:17;100898.66;;;14.59;100.00
74065;BME280;62421;51.412;5.432;2023-07-31T02:15:42;100899.63;;;14.58;100.00
74065;BME280;62421;51.412;5.432;2023-07-31T02:18:07;100893.50;;;14.56;100.00
74065;BME280;62421;51.412;5.432;2023-07-31T02:20:34;100893.50;;;14.56;100.00
74065;BME280;62421;51.412;5.432;2023-07-31T02:23:00;100884.53;;;14.56;100.00
74065;BME280;62421;51.412;5.432;2023-07-31T02:25:25;100887.25;;;14.56;100.00
74065;BME280;62421;51.412;5.432;2023-07-31T02:27:50;100881.00;;;14.55;100.00
74065;BME280;62421;51.412;5.432;2023-07-31T02:30:16;100879.38;;;14.52;100.00
74065;BME280;62421;51.412;5.432;2023-07-31T02:32:41;100887.38;;;14.54;100.00
74065;BME280;62421;51.412;5.432;2023-07-31T02:35:07;100875.59;;;14.55;100.00
74065;BME280;62421;51.412;5.432;2023-07-31T02:37:33;100868.56;;;14.52;100.00
74065;BME280;62421;51.412;5.432;2023-07-31T02:39:59;100868.44;;;14.54;100.00
74065;BME280;62421;51.412;5.432;2023-07-31T02:42:24;100870.28;;;14.53;100.00
74065;BME280;62421;51.412;5.432;2023-07-31T02:44:49;100860.22;;;14.56;100.00
74065;BME280;62421;51.412;5.432;2023-07-31T02:47:20;100870.91;;;14.57;100.00
74065;BME280;62421;51.412;5.432;2023-07-31T02:49:46;100871.75;;;14.58;100.00
74065;BME280;62421;51.412;5.432;2023-07-31T02:52:11;100864.38;;;14.60;100.00
74065;BME280;62421;51.412;5.432;2023-07-31T02:54:36;100863.53;;;14.59;100.00
74065;BME280;62421;51.412;5.432;2023-07-31T02:57:02;100866.09;;;14.61;100.00
74065;BME280;62421;51.412;5.432;2023-07-31T02:59:28;100859.56;;;14.63;100.00
74065;BME280;62421;51.412;5.432;2023-07-31T03:01:53;100859.56;;;14.63;100.00
74065;BME280;62421;51.412;5.432;2023-07-31T03:04:19;100863.13;;;14.64;100.00
74065;BME280;62421;51.412;5.432;2023-07-31T03:06:44;100856.75;;;14.65;100.00
74065;BME280;62421;51.412;5.432;2023-07-31T03:09:09;100860.28;;;14.65;100.00
74065;BME280;62421;51.412;5.432;2023-07-31T03:11:35;100863.84;;;14.66;100.00
74065;BME280;62421;51.412;5.432;2023-07-31T03:14:00;100849.47;;;14.65;100.00
74065;BME280;62421;51.412;5.432;2023-07-31T03:16:25;100858.56;;;14.64;100.00
74065;BME280;62421;51.412;5.432;2023-07-31T03:18:51;100857.44;;;14.67;100.00
74065;BME280;62421;51.412;5.432;2023-07-31T03:21:17;100852.19;;;14.65;100.00
74065;BME280;62421;51.412;5.432;2023-07-31T03:23:42;100852.19;;;14.65;100.00
74065;BME280;62421;51.412;5.432;2023-07-31T03:26:08;100861.88;;;14.68;100.00
74065;BME280;62421;51.412;5.432;2023-07-31T03:28:34;100849.19;;;14.68;100.00
74065;BME280;62421;51.412;5.432;2023-07-31T03:30:59;100858.88;;;14.71;100.00
74065;BME280;62421;51.412;5.432;2023-07-31T03:33:25;100838.88;;;14.73;100.00
74065;BME280;62421;51.412;5.432;2023-07-31T03:35:50;100835.03;;;14.76;100.00
74065;BME280;62421;51.412;5.432;2023-07-31T03:38:16;100835.59;;;14.80;100.00
74065;BME280;62421;51.412;5.432;2023-07-31T03:40:41;100837.03;;;14.84;100.00
74065;BME280;62421;51.412;5.432;2023-07-31T03:43:07;100836.06;;;14.85;100.00
74065;BME280;62421;51.412;5.432;2023-07-31T03:45:32;100832.34;;;14.86;100.00
74065;BME280;62421;51.412;5.432;2023-07-31T03:47:58;100826.81;;;14.87;100.00
74065;BME280;62421;51.412;5.432;2023-07-31T03:50:23;100826.69;;;14.89;100.00
74065;BME280;62421;51.412;5.432;2023-07-31T03:52:50;100824.72;;;14.91;100.00
74065;BME280;62421;51.412;5.432;2023-07-31T03:55:15;100823.69;;;14.92;100.00
74065;BME280;62421;51.412;5.432;2023-07-31T03:57:41;100822.72;;;14.93;100.00
74065;BME280;62421;51.412;5.432;2023-07-31T04:00:06;100809.06;;;14.94;100.00
74065;BME280;62421;51.412;5.432;2023-07-31T04:02:32;100808.94;;;14.96;100.00
74065;BME280;62421;51.412;5.432;2023-07-31T04:04:58;100812.34;;;14.98;100.00
74065;BME280;62421;51.412;5.432;2023-07-31T04:07:23;100806.81;;;15.00;100.00
74065;BME280;62421;51.412;5.432;2023-07-31T04:09:48;100787.00;;;14.99;100.00
74065;BME280;62421;51.412;5.432;2023-07-31T04:12:14;100794.13;;;15.00;100.00
74065;BME280;62421;51.412;5.432;2023-07-31T04:14:39;100792.16;;;15.02;100.00
74065;BME280;62421;51.412;5.432;2023-07-31T04:17:05;100786.63;;;15.04;100.00
74065;BME280;62421;51.412;5.432;2023-07-31T04:19:30;100791.03;;;15.05;100.00
74065;BME280;62421;51.412;5.432;2023-07-31T04:21:55;100786.19;;;15.08;100.00
74065;BME280;62421;51.412;5.432;2023-07-31T04:24:21;100786.19;;;15.08;100.00
74065;BME280;62421;51.412;5.432;2023-07-31T04:26:53;100791.19;;;15.13;100.00
74065;BME280;62421;51.412;5.432;2023-07-31T04:29:19;100780.38;;;15.13;100.00
74065;BME280;62421;51.412;5.432;2023-07-31T04:31:44;100783.66;;;15.17;100.00
74065;BME280;62421;51.412;5.432;2023-07-31T04:34:10;100771.00;;;15.17;100.00
74065;BME280;62421;51.412;5.432;2023-07-31T04:36:36;100776.09;;;15.20;100.00
74065;BME280;62421;51.412;5.432;2023-07-31T04:39:02;100772.44;;;15.21;100.00
74065;BME280;62421;51.412;5.432;2023-07-31T04:41:27;100769.56;;;15.23;100.00
74065;BME280;62421;51.412;5.432;2023-07-31T04:43:53;100772.97;;;15.25;100.00
74065;BME280;62421;51.412;5.432;2023-07-31T04:46:18;100762.88;;;15.27;100.00
74065;BME280;62421;51.412;5.432;2023-07-31T04:48:43;100764.59;;;15.28;100.00
74065;BME280;62421;51.412;5.432;2023-07-31T04:51:09;100763.59;;;15.29;100.00
74065;BME280;62421;51.412;5.432;2023-07-31T04:53:35;100770.72;;;15.30;100.00
74065;BME280;62421;51.412;5.432;2023-07-31T04:56:01;100767.00;;;15.31;100.00
74065;BME280;62421;51.412;5.432;2023-07-31T04:58:26;100756.91;;;15.33;100.00
74065;BME280;62421;51.412;5.432;2023-07-31T05:00:52;100754.34;;;15.31;100.00
74065;BME280;62421;51.412;5.432;2023-07-31T05:03:17;100756.19;;;15.31;100.00
74065;BME280;62421;51.412;5.432;2023-07-31T05:05:43;100753.50;;;15.31;100.00
74065;BME280;62421;51.412;5.432;2023-07-31T05:08:08;100739.25;;;15.29;100.00
74065;BME280;62421;51.412;5.432;2023-07-31T05:10:34;100746.38;;;15.30;100.00
74065;BME280;62421;51.412;5.432;2023-07-31T05:12:59;100747.38;;;15.29;100.00
74065;BME280;62421;51.412;5.432;2023-07-31T05:15:26;100740.97;;;15.30;100.00
74065;BME280;62421;51.412;5.432;2023-07-31T05:17:51;100747.38;;;15.29;100.00
74065;BME280;62421;51.412;5.432;2023-07-31T05:20:16;100736.53;;;15.29;100.00
74065;BME280;62421;51.412;5.432;2023-07-31T05:22:42;100742.97;;;15.28;100.00
74065;BME280;62421;51.412;5.432;2023-07-31T05:25:07;100736.72;;;15.27;100.00
74065;BME280;62421;51.412;5.432;2023-07-31T05:27:33;100734.97;;;15.26;100.00
74065;BME280;62421;51.412;5.432;2023-07-31T05:29:58;100743.94;;;15.27;100.00
74065;BME280;62421;51.412;5.432;2023-07-31T05:32:24;100750.94;;;15.29;100.00
74065;BME280;62421;51.412;5.432;2023-07-31T05:34:52;100740.81;;;15.31;100.00
74065;BME280;62421;51.412;5.432;2023-07-31T05:37:18;100741.41;;;15.35;100.00
74065;BME280;62421;51.412;5.432;2023-07-31T05:39:44;100737.72;;;15.36;100.00
74065;BME280;62421;51.412;5.432;2023-07-31T05:42:09;100734.00;;;15.37;100.00
74065;BME280;62421;51.412;5.432;2023-07-31T05:44:34;100729.16;;;15.41;100.00
74065;BME280;62421;51.412;5.432;2023-07-31T05:47:00;100733.44;;;15.43;100.00
74065;BME280;62421;51.412;5.432;2023-07-31T05:49:25;100743.25;;;15.44;100.00
74065;BME280;62421;51.412;5.432;2023-07-31T05:51:51;100730.88;;;15.42;100.00
74065;BME280;62421;51.412;5.432;2023-07-31T05:54:16;100729.16;;;15.41;100.00
74065;BME280;62421;51.412;5.432;2023-07-31T05:56:41;100732.84;;;15.40;100.00
74065;BME280;62421;51.412;5.432;2023-07-31T05:59:11;100717.63;;;15.39;100.00
74065;BME280;62421;51.412;5.432;2023-07-31T06:01:37;100722.91;;;15.40;100.00
74065;BME280;62421;51.412;5.432;2023-07-31T06:04:03;100721.19;;;15.39;100.00
74065;BME280;62421;51.412;5.432;2023-07-31T06:06:28;100718.19;;;15.42;100.00
74065;BME280;62421;51.412;5.432;2023-07-31T06:08:54;100713.78;;;15.41;100.00
74065;BME280;62421;51.412;5.432;2023-07-31T06:11:20;100712.94;;;15.41;100.00
74065;BME280;62421;51.412;5.432;2023-07-31T06:13:45;100722.91;;;15.40;100.00
74065;BME280;62421;51.412;5.432;2023-07-31T06:16:13;100707.78;;;15.38;100.00
74065;BME280;62421;51.412;5.432;2023-07-31T06:18:38;100707.94;;;15.36;100.00
74065;BME280;62421;51.412;5.432;2023-07-31T06:21:03;100700.81;;;15.35;100.00
74065;BME280;62421;51.412;5.432;2023-07-31T06:23:29;100703.66;;;15.33;100.00
74065;BME280;62421;51.412;5.432;2023-07-31T06:25:54;100689.28;;;15.33;100.00
74065;BME280;62421;51.412;5.432;2023-07-31T06:28:19;100705.50;;;15.33;100.00
74065;BME280;62421;51.412;5.432;2023-07-31T06:30:45;100701.66;;;15.35;100.00
74065;BME280;62421;51.412;5.432;2023-07-31T06:33:10;100704.94;;;15.39;100.00
74065;BME280;62421;51.412;5.432;2023-07-31T06:35:36;100703.09;;;15.40;100.00
74065;BME280;62421;51.412;5.432;2023-07-31T06:38:01;100698.41;;;15.42;100.00
74065;BME280;62421;51.412;5.432;2023-07-31T06:40:27;100684.72;;;15.43;100.00
74065;BME280;62421;51.412;5.432;2023-07-31T06:42:53;100689.72;;;15.48;100.00
74065;BME280;62421;51.412;5.432;2023-07-31T06:45:18;100696.69;;;15.50;100.00
74065;BME280;62421;51.412;5.432;2023-07-31T06:47:43;100681.59;;;15.57;100.00
74065;BME280;62421;51.412;5.432;2023-07-31T06:50:09;100676.72;;;15.61;100.00
74065;BME280;62421;51.412;5.432;2023-07-31T06:52:34;100677.59;;;15.62;100.00
74065;BME280;62421;51.412;5.432;2023-07-31T06:55:19;100693.13;;;15.60;100.00
74065;BME280;62421;51.412;5.432;2023-07-31T06:57:49;100672.47;;;15.59;100.00
74065;BME280;62421;51.412;5.432;2023-07-31T07:00:15;100678.59;;;15.61;100.00
74065;BME280;62421;51.412;5.432;2023-07-31T07:02:41;100686.72;;;15.61;100.00
74065;BME280;62421;51.412;5.432;2023-07-31T07:05:07;100682.72;;;15.65;100.00
74065;BME280;62421;51.412;5.432;2023-07-31T07:07:32;100688.72;;;15.68;100.00
74065;BME280;62421;51.412;5.432;2023-07-31T07:09:58;100671.31;;;15.81;100.00
74065;BME280;62421;51.412;5.432;2023-07-31T07:12:25;100675.31;;;15.86;100.00
74065;BME280;62421;51.412;5.432;2023-07-31T07:14:50;100668.59;;;15.90;100.00
74065;BME280;62421;51.412;5.432;2023-07-31T07:17:18;100669.91;;;15.86;100.00
74065;BME280;62421;51.412;5.432;2023-07-31T07:19:43;100662.91;;;15.84;100.00
74065;BME280;62421;51.412;5.432;2023-07-31T07:22:09;100652.81;;;15.86;100.00
74065;BME280;62421;51.412;5.432;2023-07-31T07:24:35;100664.63;;;15.85;100.00
74065;BME280;62421;51.412;5.432;2023-07-31T07:27:00;100663.47;;;15.87;100.00
74065;BME280;62421;51.412;5.432;2023-07-31T07:29:26;100659.19;;;15.85;100.00
74065;BME280;62421;51.412;5.432;2023-07-31T07:31:51;100651.66;;;15.88;100.00
74065;BME280;62421;51.412;5.432;2023-07-31T07:34:17;100649.50;;;15.92;100.00
74065;BME280;62421;51.412;5.432;2023-07-31T07:36:42;100659.63;;;15.90;100.00
74065;BME280;62421;51.412;5.432;2023-07-31T07:39:09;100662.47;;;15.88;100.00
74065;BME280;62421;51.412;5.432;2023-07-31T07:41:35;100654.94;;;15.92;100.00
74065;BME280;62421;51.412;5.432;2023-07-31T07:44:00;100665.31;;;15.96;100.00
74065;BME280;62421;51.412;5.432;2023-07-31T07:46:26;100664.28;;;15.97;100.00
74065;BME280;62421;51.412;5.432;2023-07-31T07:48:51;100660.16;;;15.93;100.00
74065;BME280;62421;51.412;5.432;2023-07-31T07:51:17;100653.19;;;15.91;100.00
74065;BME280;62421;51.412;5.432;2023-07-31T07:53:42;100655.34;;;15.87;100.00
74065;BME280;62421;51.412;5.432;2023-07-31T07:56:07;100660.94;;;15.86;100.00
74065;BME280;62421;51.412;5.432;2023-07-31T07:58:33;100662.34;;;15.90;100.00
74065;BME280;62421;51.412;5.432;2023-07-31T08:00:58;100663.31;;;15.89;100.00
74065;BME280;62421;51.412;5.432;2023-07-31T08:03:23;100649.94;;;15.87;100.00
74065;BME280;62421;51.412;5.432;2023-07-31T08:05:49;100653.34;;;15.89;100.00
74065;BME280;62421;51.412;5.432;2023-07-31T08:08:15;100655.06;;;15.90;100.00
74065;BME280;62421;51.412;5.432;2023-07-31T08:10:41;100652.50;;;15.89;100.00
74065;BME280;62421;51.412;5.432;2023-07-31T08:13:07;100648.94;;;15.88;100.00
74065;BME280;62421;51.412;5.432;2023-07-31T08:15:32;100649.50;;;15.92;100.00
74065;BME280;62421;51.412;5.432;2023-07-31T08:17:57;100648.06;;;15.97;100.00
74065;BME280;62421;51.412;5.432;2023-07-31T08:20:23;100642.19;;;16.02;100.00
74065;BME280;62421;51.412;5.432;2023-07-31T08:22:48;100651.59;;;16.08;100.00
74065;BME280;62421;51.412;5.432;2023-07-31T08:25:14;100651.13;;;16.12;100.00
74065;BME280;62421;51.412;5.432;2023-07-31T08:27:43;100648.28;;;16.14;100.00
74065;BME280;62421;51.412;5.432;2023-07-31T08:30:08;100646.56;;;16.13;100.00
74065;BME280;62421;51.412;5.432;2023-07-31T08:32:34;100649.72;;;16.08;100.00
74065;BME280;62421;51.412;5.432;2023-07-31T08:34:59;100645.47;;;16.06;100.00
74065;BME280;62421;51.412;5.432;2023-07-31T08:37:25;100648.03;;;16.07;100.00
74065;BME280;62421;51.412;5.432;2023-07-31T08:39:50;100655.31;;;16.07;100.00
74065;BME280;62421;51.412;5.432;2023-07-31T08:42:16;100649.59;;;16.00;100.00
74065;BME280;62421;51.412;5.432;2023-07-31T08:44:43;100646.06;;;16.00;100.00
74065;BME280;62421;51.412;5.432;2023-07-31T08:47:09;100640.78;;;15.98;100.00
74065;BME280;62421;51.412;5.432;2023-07-31T08:49:35;100650.31;;;16.02;100.00
74065;BME280;62421;51.412;5.432;2023-07-31T08:52:02;100643.47;;;16.08;100.00
74065;BME280;62421;51.412;5.432;2023-07-31T08:54:27;100653.28;;;16.09;100.00
74065;BME280;62421;51.412;5.432;2023-07-31T08:56:56;100645.72;;;16.12;100.00
74065;BME280;62421;51.412;5.432;2023-07-31T08:59:23;100645.44;;;16.15;100.00
74065;BME280;62421;51.412;5.432;2023-07-31T09:01:50;100643.00;;;16.22;100.00
74065;BME280;62421;51.412;5.432;2023-07-31T09:04:19;100636.28;;;16.26;100.00
74065;BME280;62421;51.412;5.432;2023-07-31T09:06:46;100635.50;;;16.34;100.00
74065;BME280;62421;51.412;5.432;2023-07-31T09:09:13;100643.44;;;16.45;100.00
74065;BME280;62421;51.412;5.432;2023-07-31T09:11:39;100640.44;;;16.48;100.00
74065;BME280;62421;51.412;5.432;2023-07-31T09:14:05;100636.72;;;16.49;100.00
74065;BME280;62421;51.412;5.432;2023-07-31T09:16:34;100634.00;;;16.49;100.00
74065;BME280;62421;51.412;5.432;2023-07-31T09:19:00;100638.56;;;16.49;100.00
74065;BME280;62421;51.412;5.432;2023-07-31T09:21:27;100639.97;;;16.53;100.00
74065;BME280;62421;51.412;5.432;2023-07-31T09:23:53;100635.13;;;16.56;100.00
74065;BME280;62421;51.412;5.432;2023-07-31T09:26:48;100623.91;;;16.69;100.00
74065;BME280;62421;51.412;5.432;2023-07-31T09:29:19;100635.84;;;16.76;100.00
74065;BME280;62421;51.412;5.432;2023-07-31T09:31:45;100619.25;;;16.79;100.00
74065;BME280;62421;51.412;5.432;2023-07-31T09:34:10;100624.94;;;16.86;100.00
74065;BME280;62421;51.412;5.432;2023-07-31T09:36:46;100626.66;;;17.05;100.00
74065;BME280;62421;51.412;5.432;2023-07-31T09:39:14;100618.31;;;17.16;100.00
74065;BME280;62421;51.412;5.432;2023-07-31T09:41:47;100616.81;;;17.22;100.00
74065;BME280;62421;51.412;5.432;2023-07-31T09:44:13;100626.97;;;17.20;100.00
74065;BME280;62421;51.412;5.432;2023-07-31T09:46:38;100622.47;;;17.29;100.00
74065;BME280;62421;51.412;5.432;2023-07-31T09:49:08;100620.16;;;17.34;100.00
74065;BME280;62421;51.412;5.432;2023-07-31T09:51:41;100624.66;;;17.25;100.00
74065;BME280;62421;51.412;5.432;2023-07-31T09:54:14;100618.53;;;17.23;100.00
74065;BME280;62421;51.412;5.432;2023-07-31T09:56:45;100627.19;;;17.27;100.00
74065;BME280;62421;51.412;5.432;2023-07-31T09:59:13;100618.69;;;17.22;100.00
74065;BME280;62421;51.412;5.432;2023-07-31T10:01:40;100615.41;;;17.18;100.00
74065;BME280;62421;51.412;5.432;2023-07-31T10:04:08;100616.13;;;17.20;100.00
74065;BME280;62421;51.412;5.432;2023-07-31T10:06:35;100615.97;;;17.22;100.00
74065;BME280;62421;51.412;5.432;2023-07-31T10:09:02;100611.41;;;17.22;100.00
74065;BME280;62421;51.412;5.432;2023-07-31T10:11:30;100611.88;;;17.17;100.00
74065;BME280;62421;51.412;5.432;2023-07-31T10:13:59;100618.75;;;17.12;100.00
74065;BME280;62421;51.412;5.432;2023-07-31T10:16:25;100607.38;;;17.08;100.00
74065;BME280;62421;51.412;5.432;2023-07-31T10:18:54;100609.41;;;17.06;100.00
74065;BME280;62421;51.412;5.432;2023-07-31T10:21:20;100611.41;;;17.04;100.00
74065;BME280;62421;51.412;5.432;2023-07-31T10:23:45;100602.25;;;17.05;100.00
74065;BME280;62421;51.412;5.432;2023-07-31T10:26:13;100601.34;;;17.14;100.00
74065;BME280;62421;51.412;5.432;2023-07-31T10:28:39;100612.94;;;17.25;100.00
74065;BME280;62421;51.412;5.432;2023-07-31T10:31:05;100601.38;;;17.40;100.00
74065;BME280;62421;51.412;5.432;2023-07-31T10:33:31;100598.69;;;17.67;100.00
74065;BME280;62421;51.412;5.432;2023-07-31T10:36:18;100609.50;;;17.85;100.00
74065;BME280;62421;51.412;5.432;2023-07-31T10:38:45;100605.16;;;17.92;100.00
74065;BME280;62421;51.412;5.432;2023-07-31T10:41:10;100603.47;;;17.99;100.00
74065;BME280;62421;51.412;5.432;2023-07-31T10:43:37;100604.31;;;17.99;100.00
74065;BME280;62421;51.412;5.432;2023-07-31T10:46:11;100612.56;;;18.16;100.00
74065;BME280;62421;51.412;5.432;2023-07-31T10:48:37;100610.09;;;18.39;100.00
74065;BME280;62421;51.412;5.432;2023-07-31T10:51:09;100612.59;;;18.75;100.00
74065;BME280;62421;51.412;5.432;2023-07-31T10:53:35;100615.91;;;18.95;100.00
74065;BME280;62421;51.412;5.432;2023-07-31T10:56:05;100595.69;;;18.97;100.00
74065;BME280;62421;51.412;5.432;2023-07-31T10:58:31;100596.53;;;18.98;100.00
74065;BME280;62421;51.412;5.432;2023-07-31T11:01:03;100597.38;;;18.98;100.00
74065;BME280;62421;51.412;5.432;2023-07-31T11:03:46;100591.06;;;18.90;100.00
74065;BME280;62421;51.412;5.432;2023-07-31T11:06:13;100585.09;;;18.86;100.00
74065;BME280;62421;51.412;5.432;2023-07-31T11:08:49;100591.06;;;18.81;100.00
74065;BME280;62421;51.412;5.432;2023-07-31T11:11:16;100592.09;;;18.80;100.00
74065;BME280;62421;51.412;5.432;2023-07-31T11:16:14;100598.66;;;18.70;100.00
74065;BME280;62421;51.412;5.432;2023-07-31T11:18:42;100592.00;;;18.64;100.00
74065;BME280;62421;51.412;5.432;2023-07-31T11:21:11;100586.22;;;18.59;100.00
74065;BME280;62421;51.412;5.432;2023-07-31T11:23:37;100587.19;;;18.50;100.00
74065;BME280;62421;51.412;5.432;2023-07-31T11:26:04;100586.03;;;18.60;100.00
74065;BME280;62421;51.412;5.432;2023-07-31T11:28:34;100585.47;;;18.83;100.00
74065;BME280;62421;51.412;5.432;2023-07-31T11:31:00;100589.38;;;19.05;100.00
74065;BME280;62421;51.412;5.432;2023-07-31T11:33:26;100593.16;;;19.12;100.00
74065;BME280;62421;51.412;5.432;2023-07-31T11:35:51;100569.31;;;18.98;100.00
74065;BME280;62421;51.412;5.432;2023-07-31T11:38:28;100579.28;;;18.73;100.00
74065;BME280;62421;51.412;5.432;2023-07-31T11:40:57;100574.28;;;18.44;100.00
74065;BME280;62421;51.412;5.432;2023-07-31T11:43:24;100584.38;;;18.17;100.00
74065;BME280;62421;51.412;5.432;2023-07-31T11:45:54;100578.00;;;18.00;100.00
74065;BME280;62421;51.412;5.432;2023-07-31T11:48:28;100579.09;;;17.81;100.00
74065;BME280;62421;51.412;5.432;2023-07-31T11:50:57;100572.72;;;17.72;100.00
74065;BME280;62421;51.412;5.432;2023-07-31T11:55:52;100570.41;;;17.77;100.00
74065;BME280;62421;51.412;5.432;2023-07-31T11:58:18;100559.94;;;17.83;100.00
74065;BME280;62421;51.412;5.432;2023-07-31T12:00:45;100573.91;;;17.88;100.00
74065;BME280;62421;51.412;5.432;2023-07-31T12:03:11;100564.22;;;17.93;100.00
74065;BME280;62421;51.412;5.432;2023-07-31T12:05:37;100566.34;;;18.08;100.00
74065;BME280;62421;51.412;5.432;2023-07-31T12:08:09;100559.56;;;18.12;100.00
74065;BME280;62421;51.412;5.432;2023-07-31T12:10:35;100565.34;;;18.17;100.00
74065;BME280;62421;51.412;5.432;2023-07-31T12:13:08;100561.47;;;18.28;100.00
74065;BME280;62421;51.412;5.432;2023-07-31T12:15:43;100552.00;;;18.32;100.00
74065;BME280;62421;51.412;5.432;2023-07-31T12:18:13;100553.91;;;18.39;100.00
74065;BME280;62421;51.412;5.432;2023-07-31T12:20:44;100554.91;;;18.38;100.00
74065;BME280;62421;51.412;5.432;2023-07-31T12:23:30;100551.50;;;18.36;100.00
74065;BME280;62421;51.412;5.432;2023-07-31T12:26:04;100543.34;;;18.36;100.00
74065;BME280;62421;51.412;5.432;2023-07-31T12:28:30;100531.97;;;18.33;100.00
74065;BME280;62421;51.412;5.432;2023-07-31T12:31:00;100542.16;;;18.31;100.00
74065;BME280;62421;51.412;5.432;2023-07-31T12:33:36;100517.50;;;18.32;100.00
74065;BME280;62421;51.412;5.432;2023-07-31T12:36:06;100524.81;;;18.32;100.00
74065;BME280;62421;51.412;5.432;2023-07-31T12:38:31;100522.28;;;18.38;100.00
74065;BME280;62421;51.412;5.432;2023-07-31T12:40:57;100534.22;;;18.46;100.00
74065;BME280;62421;51.412;5.432;2023-07-31T12:43:22;100531.50;;;18.46;100.00
74065;BME280;62421;51.412;5.432;2023-07-31T12:45:48;100524.66;;;18.50;100.00
74065;BME280;62421;51.412;5.432;2023-07-31T12:48:14;100517.56;;;18.57;100.00
74065;BME280;62421;51.412;5.432;2023-07-31T12:50:39;100522.84;;;18.75;100.00